Finley, North Dakota
Current Conditions -  °F | °C
As of 4:58 PM on Saturday 25 Oct 2014 (Local Time) from KRDR Reporting Station
Clear Clear  
Wind Chill: 60°   Ceiling: Unl
Heat Index: 60°   Visibility: 10mi
Dew Point: 24°   Wind: 10mph
Humidity: 26%   Direction: 310°NW
Pressure: 30.05"   Gusts: NA
Location:  47.51°N, 97.84°W
Report Text: KRDR 252158Z AUTO 31009KT 10SM CLR 15/M04 A3005 RMK AO2 SLP185 T01541043
Loading
Personal Weather Stations






























Interactive Weather Map
Tropical Storm Tracking
New forecast layout! Learn more

10-Day Weather Forecast

Advertisements
Track Severe Weather on mobile